createdAt,value
2022-08-20T00:04:58.595Z,92
2022-08-20T00:14:59.559Z,94
2022-08-20T00:25:00.562Z,94
2022-08-20T00:35:01.539Z,94
2022-08-20T00:45:02.551Z,96
2022-08-20T00:55:03.374Z,98
2022-08-20T01:05:03.872Z,98
2022-08-20T01:15:04.611Z,98
2022-08-20T01:25:05.595Z,99
2022-08-20T01:35:06.076Z,99
2022-08-20T01:45:06.859Z,100
2022-08-20T01:55:07.132Z,100
2022-08-20T02:05:07.739Z,100
2022-08-20T02:15:08.162Z,100
2022-08-20T02:25:08.710Z,100
2022-08-20T02:35:09.356Z,100
2022-08-20T02:45:10.290Z,100
2022-08-20T03:05:11.065Z,100
2022-08-20T03:15:17.134Z,100
2022-08-20T03:25:12.289Z,100
2022-08-20T03:35:13.095Z,100
2022-08-20T03:45:17.185Z,100
2022-08-20T03:55:14.370Z,100
2022-08-20T04:05:15.029Z,100
2022-08-20T04:15:15.203Z,100
2022-08-20T04:25:16.080Z,100
2022-08-20T04:35:16.240Z,100
2022-08-20T04:45:17.199Z,100
2022-08-20T04:55:17.692Z,100
2022-08-20T05:15:18.473Z,100
2022-08-20T05:25:19.344Z,100
2022-08-20T05:35:19.804Z,100
2022-08-20T05:45:20.044Z,100
2022-08-20T05:55:20.986Z,100
2022-08-20T06:05:21.965Z,100
2022-08-20T06:15:22.237Z,100
2022-08-20T06:25:22.461Z,100
2022-08-20T06:45:23.299Z,100
2022-08-20T06:55:23.713Z,99
2022-08-20T07:05:24.019Z,96
2022-08-20T07:15:24.955Z,95
2022-08-20T07:25:25.798Z,93
2022-08-20T07:35:26.674Z,93
2022-08-20T07:55:28.007Z,94
2022-08-20T08:05:28.422Z,94
2022-08-20T08:15:29.187Z,94
2022-08-20T08:25:29.687Z,92
2022-08-20T08:35:30.358Z,89
2022-08-20T08:45:31.038Z,85
2022-08-20T08:55:31.832Z,85
2022-08-20T09:05:31.917Z,82
2022-08-20T09:15:32.773Z,80
2022-08-20T09:35:34.132Z,75
2022-08-20T09:45:35.029Z,73
2022-08-20T09:55:36.088Z,70
2022-08-20T10:05:36.329Z,66
2022-08-20T10:15:37.244Z,65
2022-08-20T10:25:37.603Z,65
2022-08-20T10:45:38.339Z,69
2022-08-20T11:05:40.299Z,68
2022-08-20T11:15:40.996Z,70
2022-08-20T11:25:41.722Z,73
2022-08-20T11:35:43.434Z,73
2022-08-20T11:55:43.931Z,66
2022-08-20T12:05:44.186Z,64
2022-08-20T12:15:44.487Z,67
2022-08-20T12:25:45.543Z,67
2022-08-20T12:35:46.628Z,67
2022-08-20T12:45:47.390Z,66
2022-08-20T12:55:48.027Z,66
2022-08-20T13:05:48.697Z,63
2022-08-20T13:15:49.649Z,62
2022-08-20T13:25:50.276Z,63
2022-08-20T13:35:51.152Z,62
2022-08-20T13:45:52.121Z,60
2022-08-20T14:05:53.748Z,58
2022-08-20T14:15:54.004Z,55
2022-08-20T14:25:54.600Z,54
2022-08-20T14:35:55.191Z,55
2022-08-20T14:45:56.128Z,55
2022-08-20T14:55:56.959Z,55
2022-08-20T15:05:57.583Z,54
2022-08-20T15:15:57.821Z,53
2022-08-20T15:25:58.898Z,54
2022-08-20T15:35:59.152Z,52
2022-08-20T15:45:59.804Z,54
2022-08-20T15:56:00.877Z,54
2022-08-20T16:06:01.798Z,55
2022-08-20T16:16:02.892Z,56
2022-08-20T16:26:03.466Z,54
2022-08-20T16:36:04.420Z,53
2022-08-20T16:46:05.442Z,52
2022-08-20T17:06:07.455Z,49
2022-08-20T17:16:07.722Z,50
2022-08-20T17:36:08.598Z,51
2022-08-20T17:46:11.274Z,51
2022-08-20T18:06:10.715Z,52
2022-08-20T18:16:10.963Z,51
2022-08-20T18:26:11.697Z,51
2022-08-20T18:46:12.398Z,52
2022-08-20T18:56:12.966Z,53
2022-08-20T19:06:13.716Z,54
2022-08-20T19:16:13.823Z,55
2022-08-20T19:26:24.974Z,55
2022-08-20T19:36:15.081Z,56
2022-08-20T19:46:15.403Z,57
2022-08-20T20:06:17.133Z,59
2022-08-20T20:16:16.489Z,60
2022-08-20T20:26:16.772Z,62
2022-08-20T20:36:17.159Z,63
2022-08-20T20:46:17.845Z,65
2022-08-20T21:06:19.511Z,68
2022-08-20T21:16:20.198Z,69
2022-08-20T21:26:20.597Z,71
2022-08-20T21:36:20.753Z,71
2022-08-20T21:46:24.767Z,73
2022-08-20T22:16:23.273Z,77
2022-08-20T22:26:27.167Z,77
2022-08-20T22:36:25.044Z,77
2022-08-20T22:46:26.433Z,78
2022-08-20T22:56:26.965Z,80
2022-08-20T23:06:27.597Z,81
2022-08-20T23:16:28.179Z,82
2022-08-20T23:26:29.115Z,82
2022-08-20T23:36:29.458Z,83
2022-08-20T23:46:30.095Z,84
2022-08-20T23:56:30.698Z,84
